sensor_id;sensor_type;location;lat;lon;timestamp;P1;durP1;ratioP1;P2;durP2;ratioP2
25231;SDS011;13176;51.140;6.290;2023-09-07T00:02:04;1021.25;;;924.50;;
25231;SDS011;13176;51.140;6.290;2023-09-07T00:04:31;1100.20;;;982.85;;
25231;SDS011;13176;51.140;6.290;2023-09-07T00:06:58;1039.68;;;940.08;;
25231;SDS011;13176;51.140;6.290;2023-09-07T00:09:25;1080.72;;;969.97;;
25231;SDS011;13176;51.140;6.290;2023-09-07T00:11:53;1192.40;;;999.90;;
25231;SDS011;13176;51.140;6.290;2023-09-07T00:14:19;1232.53;;;999.90;;
25231;SDS011;13176;51.140;6.290;2023-09-07T00:16:45;1123.40;;;998.03;;
25231;SDS011;13176;51.140;6.290;2023-09-07T00:19:12;1127.30;;;994.63;;
25231;SDS011;13176;51.140;6.290;2023-09-07T00:21:39;1300.75;;;999.90;;
25231;SDS011;13176;51.140;6.290;2023-09-07T00:24:05;1210.93;;;999.90;;
25231;SDS011;13176;51.140;6.290;2023-09-07T00:26:32;1244.30;;;999.90;;
25231;SDS011;13176;51.140;6.290;2023-09-07T00:28:59;1166.03;;;999.90;;
25231;SDS011;13176;51.140;6.290;2023-09-07T00:31:25;1132.57;;;999.90;;
25231;SDS011;13176;51.140;6.290;2023-09-07T00:33:52;1147.10;;;999.90;;
25231;SDS011;13176;51.140;6.290;2023-09-07T00:36:18;1110.15;;;992.42;;
25231;SDS011;13176;51.140;6.290;2023-09-07T00:38:45;1101.90;;;991.25;;
25231;SDS011;13176;51.140;6.290;2023-09-07T00:41:13;1155.70;;;999.90;;
25231;SDS011;13176;51.140;6.290;2023-09-07T00:43:39;1079.35;;;969.47;;
25231;SDS011;13176;51.140;6.290;2023-09-07T00:46:07;1163.32;;;999.30;;
25231;SDS011;13176;51.140;6.290;2023-09-07T00:48:34;1228.93;;;999.90;;
25231;SDS011;13176;51.140;6.290;2023-09-07T00:51:01;1499.95;;;999.90;;
25231;SDS011;13176;51.140;6.290;2023-09-07T00:53:27;1472.75;;;999.90;;
25231;SDS011;13176;51.140;6.290;2023-09-07T00:55:54;1632.47;;;999.90;;
25231;SDS011;13176;51.140;6.290;2023-09-07T00:58:22;1719.07;;;999.90;;
25231;SDS011;13176;51.140;6.290;2023-09-07T01:00:48;1704.07;;;999.90;;
25231;SDS011;13176;51.140;6.290;2023-09-07T01:03:15;1959.35;;;999.90;;
25231;SDS011;13176;51.140;6.290;2023-09-07T01:05:52;1971.28;;;999.90;;
25231;SDS011;13176;51.140;6.290;2023-09-07T01:08:25;1838.22;;;999.90;;
25231;SDS011;13176;51.140;6.290;2023-09-07T01:10:58;1640.72;;;999.90;;
25231;SDS011;13176;51.140;6.290;2023-09-07T01:13:25;1483.55;;;999.90;;
25231;SDS011;13176;51.140;6.290;2023-09-07T01:15:51;1933.35;;;999.90;;
25231;SDS011;13176;51.140;6.290;2023-09-07T01:18:18;1955.30;;;999.90;;
25231;SDS011;13176;51.140;6.290;2023-09-07T01:21:05;1748.00;;;999.90;;
25231;SDS011;13176;51.140;6.290;2023-09-07T01:23:37;1903.97;;;999.90;;
25231;SDS011;13176;51.140;6.290;2023-09-07T01:26:06;1999.90;;;999.90;;
25231;SDS011;13176;51.140;6.290;2023-09-07T01:28:34;1932.78;;;999.90;;
25231;SDS011;13176;51.140;6.290;2023-09-07T01:31:01;1925.53;;;999.90;;
25231;SDS011;13176;51.140;6.290;2023-09-07T01:33:28;1919.78;;;999.90;;
25231;SDS011;13176;51.140;6.290;2023-09-07T01:35:54;1808.45;;;999.90;;
25231;SDS011;13176;51.140;6.290;2023-09-07T01:38:21;1999.65;;;999.90;;
25231;SDS011;13176;51.140;6.290;2023-09-07T01:40:48;1999.90;;;999.90;;
25231;SDS011;13176;51.140;6.290;2023-09-07T01:43:14;1999.90;;;999.90;;
25231;SDS011;13176;51.140;6.290;2023-09-07T01:45:41;1999.90;;;999.90;;
25231;SDS011;13176;51.140;6.290;2023-09-07T01:48:11;1999.90;;;999.90;;
25231;SDS011;13176;51.140;6.290;2023-09-07T01:50:38;1985.63;;;999.90;;
25231;SDS011;13176;51.140;6.290;2023-09-07T01:53:05;1999.90;;;999.90;;
25231;SDS011;13176;51.140;6.290;2023-09-07T01:55:31;1832.30;;;999.90;;
25231;SDS011;13176;51.140;6.290;2023-09-07T01:57:58;1822.90;;;999.90;;
25231;SDS011;13176;51.140;6.290;2023-09-07T02:00:25;1678.97;;;999.90;;
25231;SDS011;13176;51.140;6.290;2023-09-07T02:02:52;1589.70;;;999.90;;
25231;SDS011;13176;51.140;6.290;2023-09-07T02:05:19;1534.53;;;999.90;;
25231;SDS011;13176;51.140;6.290;2023-09-07T02:07:45;1500.40;;;999.90;;
25231;SDS011;13176;51.140;6.290;2023-09-07T02:10:12;1311.32;;;999.90;;
25231;SDS011;13176;51.140;6.290;2023-09-07T02:12:38;1712.60;;;999.90;;
25231;SDS011;13176;51.140;6.290;2023-09-07T02:15:05;1798.88;;;999.90;;
25231;SDS011;13176;51.140;6.290;2023-09-07T02:17:32;1669.90;;;999.90;;
25231;SDS011;13176;51.140;6.290;2023-09-07T02:19:58;1451.60;;;999.90;;
25231;SDS011;13176;51.140;6.290;2023-09-07T02:22:25;1750.60;;;999.90;;
25231;SDS011;13176;51.140;6.290;2023-09-07T02:24:51;1848.40;;;999.90;;
25231;SDS011;13176;51.140;6.290;2023-09-07T02:27:18;1557.45;;;999.90;;
25231;SDS011;13176;51.140;6.290;2023-09-07T02:29:44;1541.85;;;999.90;;
25231;SDS011;13176;51.140;6.290;2023-09-07T02:32:11;1738.15;;;999.90;;
25231;SDS011;13176;51.140;6.290;2023-09-07T02:34:38;1468.47;;;999.90;;
25231;SDS011;13176;51.140;6.290;2023-09-07T02:37:04;1407.47;;;999.90;;
25231;SDS011;13176;51.140;6.290;2023-09-07T02:39:31;1757.72;;;999.90;;
25231;SDS011;13176;51.140;6.290;2023-09-07T02:41:57;1501.60;;;999.90;;
25231;SDS011;13176;51.140;6.290;2023-09-07T02:44:24;1991.03;;;999.90;;
25231;SDS011;13176;51.140;6.290;2023-09-07T02:46:50;1881.47;;;999.90;;
25231;SDS011;13176;51.140;6.290;2023-09-07T02:49:16;1999.90;;;999.90;;
25231;SDS011;13176;51.140;6.290;2023-09-07T02:51:43;1941.25;;;999.90;;
25231;SDS011;13176;51.140;6.290;2023-09-07T02:54:10;1822.78;;;999.90;;
25231;SDS011;13176;51.140;6.290;2023-09-07T02:56:36;1884.68;;;999.90;;
25231;SDS011;13176;51.140;6.290;2023-09-07T02:59:03;1693.32;;;999.90;;
25231;SDS011;13176;51.140;6.290;2023-09-07T03:01:29;1418.85;;;999.90;;
25231;SDS011;13176;51.140;6.290;2023-09-07T03:03:56;1529.45;;;999.90;;
25231;SDS011;13176;51.140;6.290;2023-09-07T03:06:23;1762.65;;;999.90;;
25231;SDS011;13176;51.140;6.290;2023-09-07T03:08:49;1667.35;;;999.90;;
25231;SDS011;13176;51.140;6.290;2023-09-07T03:11:18;1671.85;;;999.90;;
25231;SDS011;13176;51.140;6.290;2023-09-07T03:13:44;1698.65;;;999.90;;
25231;SDS011;13176;51.140;6.290;2023-09-07T03:16:11;1685.10;;;999.90;;
25231;SDS011;13176;51.140;6.290;2023-09-07T03:18:38;1561.90;;;999.90;;
25231;SDS011;13176;51.140;6.290;2023-09-07T03:21:05;1602.90;;;999.90;;
25231;SDS011;13176;51.140;6.290;2023-09-07T03:23:31;1171.88;;;999.90;;
25231;SDS011;13176;51.140;6.290;2023-09-07T03:25:59;1458.45;;;999.90;;
25231;SDS011;13176;51.140;6.290;2023-09-07T03:28:26;1261.30;;;999.35;;
25231;SDS011;13176;51.140;6.290;2023-09-07T03:30:55;1401.32;;;999.90;;
25231;SDS011;13176;51.140;6.290;2023-09-07T03:33:22;1602.30;;;999.90;;
25231;SDS011;13176;51.140;6.290;2023-09-07T03:35:49;1490.68;;;999.90;;
25231;SDS011;13176;51.140;6.290;2023-09-07T03:38:17;1310.80;;;999.90;;
25231;SDS011;13176;51.140;6.290;2023-09-07T03:40:44;1358.18;;;999.90;;
25231;SDS011;13176;51.140;6.290;2023-09-07T03:43:11;1428.75;;;999.90;;
25231;SDS011;13176;51.140;6.290;2023-09-07T03:45:37;1492.35;;;999.90;;
25231;SDS011;13176;51.140;6.290;2023-09-07T03:48:04;1368.30;;;999.90;;
25231;SDS011;13176;51.140;6.290;2023-09-07T03:50:31;1289.80;;;999.90;;
25231;SDS011;13176;51.140;6.290;2023-09-07T03:52:58;1240.03;;;999.90;;
25231;SDS011;13176;51.140;6.290;2023-09-07T03:55:24;1409.07;;;999.90;;
25231;SDS011;13176;51.140;6.290;2023-09-07T03:57:50;1420.78;;;999.90;;
25231;SDS011;13176;51.140;6.290;2023-09-07T04:00:20;1141.28;;;995.80;;
25231;SDS011;13176;51.140;6.290;2023-09-07T04:02:47;1100.85;;;982.78;;
25231;SDS011;13176;51.140;6.290;2023-09-07T04:05:14;1190.45;;;999.90;;
25231;SDS011;13176;51.140;6.290;2023-09-07T04:07:40;1104.50;;;984.38;;
25231;SDS011;13176;51.140;6.290;2023-09-07T04:10:06;1240.93;;;999.50;;
25231;SDS011;13176;51.140;6.290;2023-09-07T04:12:33;1272.22;;;999.90;;
25231;SDS011;13176;51.140;6.290;2023-09-07T04:15:03;1303.05;;;999.90;;
25231;SDS011;13176;51.140;6.290;2023-09-07T04:17:30;1361.13;;;999.90;;
25231;SDS011;13176;51.140;6.290;2023-09-07T04:19:58;1432.45;;;999.90;;
25231;SDS011;13176;51.140;6.290;2023-09-07T04:22:25;1940.28;;;999.90;;
25231;SDS011;13176;51.140;6.290;2023-09-07T04:24:51;1579.65;;;999.90;;
25231;SDS011;13176;51.140;6.290;2023-09-07T04:27:18;1770.63;;;999.90;;
25231;SDS011;13176;51.140;6.290;2023-09-07T04:29:44;1533.55;;;999.90;;
25231;SDS011;13176;51.140;6.290;2023-09-07T04:32:11;1963.00;;;999.90;;
25231;SDS011;13176;51.140;6.290;2023-09-07T04:34:37;1671.40;;;999.90;;
25231;SDS011;13176;51.140;6.290;2023-09-07T04:37:04;1999.90;;;999.90;;
25231;SDS011;13176;51.140;6.290;2023-09-07T04:39:30;1827.03;;;999.90;;
25231;SDS011;13176;51.140;6.290;2023-09-07T04:41:57;1999.90;;;999.90;;
25231;SDS011;13176;51.140;6.290;2023-09-07T04:44:23;1999.90;;;999.90;;
25231;SDS011;13176;51.140;6.290;2023-09-07T04:46:49;1999.90;;;999.90;;
25231;SDS011;13176;51.140;6.290;2023-09-07T04:49:18;1999.90;;;999.90;;
25231;SDS011;13176;51.140;6.290;2023-09-07T04:51:44;1999.90;;;999.90;;
25231;SDS011;13176;51.140;6.290;2023-09-07T04:54:10;1999.90;;;999.90;;
25231;SDS011;13176;51.140;6.290;2023-09-07T04:56:37;1999.90;;;999.90;;
25231;SDS011;13176;51.140;6.290;2023-09-07T04:59:03;1999.90;;;999.90;;
25231;SDS011;13176;51.140;6.290;2023-09-07T05:01:30;1999.90;;;999.90;;
25231;SDS011;13176;51.140;6.290;2023-09-07T05:03:58;1999.90;;;999.90;;
25231;SDS011;13176;51.140;6.290;2023-09-07T05:06:25;1999.90;;;999.90;;
25231;SDS011;13176;51.140;6.290;2023-09-07T05:08:52;1999.90;;;999.90;;
25231;SDS011;13176;51.140;6.290;2023-09-07T05:11:19;1999.90;;;999.90;;
25231;SDS011;13176;51.140;6.290;2023-09-07T05:13:45;1999.90;;;999.90;;
25231;SDS011;13176;51.140;6.290;2023-09-07T05:16:11;1999.90;;;999.90;;
25231;SDS011;13176;51.140;6.290;2023-09-07T05:18:40;1999.90;;;999.90;;
25231;SDS011;13176;51.140;6.290;2023-09-07T05:21:13;1999.90;;;999.90;;
25231;SDS011;13176;51.140;6.290;2023-09-07T05:23:41;1999.90;;;999.90;;
25231;SDS011;13176;51.140;6.290;2023-09-07T05:26:08;1999.90;;;999.90;;
25231;SDS011;13176;51.140;6.290;2023-09-07T05:28:34;1742.82;;;999.90;;
25231;SDS011;13176;51.140;6.290;2023-09-07T05:31:00;1770.45;;;999.90;;
25231;SDS011;13176;51.140;6.290;2023-09-07T05:33:27;1933.75;;;999.90;;
25231;SDS011;13176;51.140;6.290;2023-09-07T05:35:53;1999.90;;;999.90;;
25231;SDS011;13176;51.140;6.290;2023-09-07T05:38:20;1995.95;;;999.90;;
25231;SDS011;13176;51.140;6.290;2023-09-07T05:40:46;1999.90;;;999.90;;
25231;SDS011;13176;51.140;6.290;2023-09-07T05:43:16;1986.82;;;999.90;;
25231;SDS011;13176;51.140;6.290;2023-09-07T05:45:42;1873.18;;;999.90;;
25231;SDS011;13176;51.140;6.290;2023-09-07T05:48:09;1999.90;;;999.90;;
25231;SDS011;13176;51.140;6.290;2023-09-07T05:50:36;1999.90;;;999.90;;
25231;SDS011;13176;51.140;6.290;2023-09-07T05:53:04;1999.90;;;999.90;;
25231;SDS011;13176;51.140;6.290;2023-09-07T05:55:30;1999.90;;;999.90;;
25231;SDS011;13176;51.140;6.290;2023-09-07T05:57:57;1999.90;;;999.90;;
25231;SDS011;13176;51.140;6.290;2023-09-07T06:00:24;1999.90;;;999.90;;
25231;SDS011;13176;51.140;6.290;2023-09-07T06:02:51;1999.90;;;999.90;;
25231;SDS011;13176;51.140;6.290;2023-09-07T06:05:18;1999.90;;;999.90;;
25231;SDS011;13176;51.140;6.290;2023-09-07T06:07:45;1836.03;;;999.90;;
25231;SDS011;13176;51.140;6.290;2023-09-07T06:10:11;1999.90;;;999.90;;
25231;SDS011;13176;51.140;6.290;2023-09-07T06:12:38;1999.90;;;999.90;;
25231;SDS011;13176;51.140;6.290;2023-09-07T06:15:04;1999.90;;;999.90;;
25231;SDS011;13176;51.140;6.290;2023-09-07T06:17:31;1999.90;;;999.90;;
25231;SDS011;13176;51.140;6.290;2023-09-07T06:19:58;1999.90;;;999.90;;
25231;SDS011;13176;51.140;6.290;2023-09-07T06:22:25;1999.90;;;999.90;;
25231;SDS011;13176;51.140;6.290;2023-09-07T06:24:51;1999.90;;;999.90;;
25231;SDS011;13176;51.140;6.290;2023-09-07T06:27:18;1999.90;;;999.90;;
25231;SDS011;13176;51.140;6.290;2023-09-07T06:29:44;1999.90;;;999.90;;
25231;SDS011;13176;51.140;6.290;2023-09-07T06:32:10;1999.90;;;999.90;;
25231;SDS011;13176;51.140;6.290;2023-09-07T06:34:37;1999.90;;;999.90;;
25231;SDS011;13176;51.140;6.290;2023-09-07T06:37:04;1999.90;;;999.90;;
25231;SDS011;13176;51.140;6.290;2023-09-07T06:39:31;1999.90;;;999.90;;
25231;SDS011;13176;51.140;6.290;2023-09-07T06:41:57;1999.90;;;999.90;;
25231;SDS011;13176;51.140;6.290;2023-09-07T06:44:24;1999.90;;;999.90;;
25231;SDS011;13176;51.140;6.290;2023-09-07T06:46:50;1999.90;;;999.90;;
25231;SDS011;13176;51.140;6.290;2023-09-07T06:49:17;1999.90;;;999.90;;
25231;SDS011;13176;51.140;6.290;2023-09-07T06:51:43;1999.90;;;999.90;;
25231;SDS011;13176;51.140;6.290;2023-09-07T06:54:13;1999.90;;;999.90;;
25231;SDS011;13176;51.140;6.290;2023-09-07T06:56:40;1999.90;;;999.90;;
25231;SDS011;13176;51.140;6.290;2023-09-07T06:59:06;1999.90;;;999.90;;
25231;SDS011;13176;51.140;6.290;2023-09-07T07:01:32;1999.90;;;999.90;;
25231;SDS011;13176;51.140;6.290;2023-09-07T07:04:00;1999.90;;;999.90;;
25231;SDS011;13176;51.140;6.290;2023-09-07T07:06:26;1999.90;;;999.90;;
25231;SDS011;13176;51.140;6.290;2023-09-07T07:08:53;1999.90;;;999.90;;
25231;SDS011;13176;51.140;6.290;2023-09-07T07:11:19;1999.90;;;999.90;;
25231;SDS011;13176;51.140;6.290;2023-09-07T07:13:46;1999.90;;;999.90;;
25231;SDS011;13176;51.140;6.290;2023-09-07T07:16:15;1596.50;;;999.90;;
25231;SDS011;13176;51.140;6.290;2023-09-07T07:18:43;1778.25;;;999.90;;
25231;SDS011;13176;51.140;6.290;2023-09-07T07:21:16;1999.90;;;999.90;;
25231;SDS011;13176;51.140;6.290;2023-09-07T07:23:42;1973.22;;;999.90;;
25231;SDS011;13176;51.140;6.290;2023-09-07T07:26:09;1999.90;;;999.90;;
25231;SDS011;13176;51.140;6.290;2023-09-07T07:28:35;1999.90;;;999.90;;
25231;SDS011;13176;51.140;6.290;2023-09-07T07:31:08;1999.90;;;999.90;;
25231;SDS011;13176;51.140;6.290;2023-09-07T07:33:36;1999.90;;;999.90;;
25231;SDS011;13176;51.140;6.290;2023-09-07T07:36:04;1999.90;;;999.90;;
25231;SDS011;13176;51.140;6.290;2023-09-07T07:38:31;1999.90;;;999.90;;
25231;SDS011;13176;51.140;6.290;2023-09-07T07:40:57;1999.90;;;999.90;;
25231;SDS011;13176;51.140;6.290;2023-09-07T07:43:24;1999.90;;;999.90;;
25231;SDS011;13176;51.140;6.290;2023-09-07T07:45:54;1999.90;;;999.90;;
25231;SDS011;13176;51.140;6.290;2023-09-07T07:48:21;1999.90;;;999.90;;
25231;SDS011;13176;51.140;6.290;2023-09-07T07:50:47;1999.90;;;999.90;;
25231;SDS011;13176;51.140;6.290;2023-09-07T07:53:14;1999.90;;;999.90;;
25231;SDS011;13176;51.140;6.290;2023-09-07T07:55:41;1999.90;;;999.90;;
25231;SDS011;13176;51.140;6.290;2023-09-07T07:58:08;1999.90;;;999.90;;
25231;SDS011;13176;51.140;6.290;2023-09-07T08:00:36;1999.90;;;999.90;;
25231;SDS011;13176;51.140;6.290;2023-09-07T08:03:04;1999.90;;;999.90;;
25231;SDS011;13176;51.140;6.290;2023-09-07T08:05:34;1999.90;;;999.90;;
25231;SDS011;13176;51.140;6.290;2023-09-07T08:08:01;1999.90;;;999.90;;
25231;SDS011;13176;51.140;6.290;2023-09-07T08:10:29;1999.90;;;999.90;;
25231;SDS011;13176;51.140;6.290;2023-09-07T08:12:57;1999.90;;;999.90;;
25231;SDS011;13176;51.140;6.290;2023-09-07T08:15:24;1999.90;;;999.90;;
25231;SDS011;13176;51.140;6.290;2023-09-07T08:17:51;1999.90;;;999.90;;
25231;SDS011;13176;51.140;6.290;2023-09-07T08:20:19;1999.90;;;999.90;;
25231;SDS011;13176;51.140;6.290;2023-09-07T08:22:45;1999.90;;;999.90;;
25231;SDS011;13176;51.140;6.290;2023-09-07T08:25:12;1999.90;;;999.90;;
25231;SDS011;13176;51.140;6.290;2023-09-07T08:27:43;1889.25;;;999.90;;
25231;SDS011;13176;51.140;6.290;2023-09-07T08:30:14;1749.88;;;999.90;;
25231;SDS011;13176;51.140;6.290;2023-09-07T08:32:42;1999.90;;;999.90;;
25231;SDS011;13176;51.140;6.290;2023-09-07T08:35:12;1999.90;;;999.90;;
25231;SDS011;13176;51.140;6.290;2023-09-07T08:37:40;1999.90;;;999.90;;
25231;SDS011;13176;51.140;6.290;2023-09-07T08:40:06;1982.97;;;999.90;;
25231;SDS011;13176;51.140;6.290;2023-09-07T08:42:37;1999.90;;;999.90;;
25231;SDS011;13176;51.140;6.290;2023-09-07T08:45:04;1999.90;;;999.90;;
25231;SDS011;13176;51.140;6.290;2023-09-07T08:47:34;1563.95;;;999.90;;
25231;SDS011;13176;51.140;6.290;2023-09-07T08:50:02;1999.90;;;999.90;;
25231;SDS011;13176;51.140;6.290;2023-09-07T08:52:28;1691.00;;;999.90;;
25231;SDS011;13176;51.140;6.290;2023-09-07T08:54:56;1452.85;;;999.90;;
25231;SDS011;13176;51.140;6.290;2023-09-07T08:57:27;1614.13;;;999.90;;
25231;SDS011;13176;51.140;6.290;2023-09-07T08:59:56;1514.40;;;999.90;;
25231;SDS011;13176;51.140;6.290;2023-09-07T09:02:22;1568.18;;;999.90;;
25231;SDS011;13176;51.140;6.290;2023-09-07T09:04:50;1936.63;;;999.90;;
25231;SDS011;13176;51.140;6.290;2023-09-07T09:07:20;1628.57;;;999.90;;
25231;SDS011;13176;51.140;6.290;2023-09-07T09:09:48;1789.70;;;999.90;;
25231;SDS011;13176;51.140;6.290;2023-09-07T09:12:30;1999.90;;;999.90;;
25231;SDS011;13176;51.140;6.290;2023-09-07T09:14:58;1999.90;;;999.90;;
25231;SDS011;13176;51.140;6.290;2023-09-07T09:17:25;1999.90;;;999.90;;
25231;SDS011;13176;51.140;6.290;2023-09-07T09:19:51;1999.90;;;999.90;;
25231;SDS011;13176;51.140;6.290;2023-09-07T09:22:18;1999.90;;;999.90;;
25231;SDS011;13176;51.140;6.290;2023-09-07T09:24:49;1999.90;;;999.90;;
25231;SDS011;13176;51.140;6.290;2023-09-07T09:27:16;1999.90;;;999.90;;
25231;SDS011;13176;51.140;6.290;2023-09-07T09:29:43;1463.72;;;997.45;;
25231;SDS011;13176;51.140;6.290;2023-09-07T09:32:13;1928.05;;;999.90;;
25231;SDS011;13176;51.140;6.290;2023-09-07T09:34:40;1999.90;;;999.90;;
25231;SDS011;13176;51.140;6.290;2023-09-07T09:37:13;1602.35;;;998.55;;
25231;SDS011;13176;51.140;6.290;2023-09-07T09:39:41;997.40;;;888.38;;
25231;SDS011;13176;51.140;6.290;2023-09-07T09:42:08;1607.25;;;999.90;;
25231;SDS011;13176;51.140;6.290;2023-09-07T09:44:35;1412.10;;;997.35;;
25231;SDS011;13176;51.140;6.290;2023-09-07T09:47:06;599.13;;;556.90;;
25231;SDS011;13176;51.140;6.290;2023-09-07T09:49:34;576.60;;;536.55;;
25231;SDS011;13176;51.140;6.290;2023-09-07T09:52:01;969.60;;;874.42;;
25231;SDS011;13176;51.140;6.290;2023-09-07T09:54:30;181.80;;;170.88;;
25231;SDS011;13176;51.140;6.290;2023-09-07T09:57:01;388.55;;;365.38;;
25231;SDS011;13176;51.140;6.290;2023-09-07T09:59:27;477.83;;;448.48;;
25231;SDS011;13176;51.140;6.290;2023-09-07T10:01:56;226.50;;;213.73;;
25231;SDS011;13176;51.140;6.290;2023-09-07T10:04:25;547.17;;;512.30;;
25231;SDS011;13176;51.140;6.290;2023-09-07T10:07:01;654.42;;;593.17;;
25231;SDS011;13176;51.140;6.290;2023-09-07T10:09:34;333.92;;;313.90;;
25231;SDS011;13176;51.140;6.290;2023-09-07T10:12:03;165.68;;;156.07;;
25231;SDS011;13176;51.140;6.290;2023-09-07T10:14:40;193.93;;;182.95;;
25231;SDS011;13176;51.140;6.290;2023-09-07T10:17:07;189.13;;;178.40;;
25231;SDS011;13176;51.140;6.290;2023-09-07T10:19:36;170.57;;;160.15;;
25231;SDS011;13176;51.140;6.290;2023-09-07T10:22:04;192.00;;;181.25;;
25231;SDS011;13176;51.140;6.290;2023-09-07T10:24:31;190.70;;;179.55;;
25231;SDS011;13176;51.140;6.290;2023-09-07T10:27:03;182.27;;;171.85;;
25231;SDS011;13176;51.140;6.290;2023-09-07T10:32:22;229.98;;;217.02;;
25231;SDS011;13176;51.140;6.290;2023-09-07T10:34:48;114.97;;;108.47;;
25231;SDS011;13176;51.140;6.290;2023-09-07T10:37:16;93.25;;;87.70;;
25231;SDS011;13176;51.140;6.290;2023-09-07T10:39:43;60.42;;;56.97;;
25231;SDS011;13176;51.140;6.290;2023-09-07T10:42:23;64.85;;;61.10;;
25231;SDS011;13176;51.140;6.290;2023-09-07T10:44:51;48.10;;;44.85;;
25231;SDS011;13176;51.140;6.290;2023-09-07T10:47:18;55.65;;;51.95;;
25231;SDS011;13176;51.140;6.290;2023-09-07T10:49:45;60.40;;;56.80;;
25231;SDS011;13176;51.140;6.290;2023-09-07T10:52:11;61.55;;;57.75;;
25231;SDS011;13176;51.140;6.290;2023-09-07T10:54:38;79.85;;;74.95;;
25231;SDS011;13176;51.140;6.290;2023-09-07T10:57:10;82.07;;;77.28;;
25231;SDS011;13176;51.140;6.290;2023-09-07T10:59:44;78.95;;;74.18;;
25231;SDS011;13176;51.140;6.290;2023-09-07T11:02:12;67.38;;;63.33;;
25231;SDS011;13176;51.140;6.290;2023-09-07T11:04:39;62.03;;;58.47;;
25231;SDS011;13176;51.140;6.290;2023-09-07T11:07:05;31.67;;;29.38;;
25231;SDS011;13176;51.140;6.290;2023-09-07T11:09:32;31.20;;;29.17;;
25231;SDS011;13176;51.140;6.290;2023-09-07T11:12:05;29.13;;;27.13;;
25231;SDS011;13176;51.140;6.290;2023-09-07T11:14:32;23.90;;;22.17;;
25231;SDS011;13176;51.140;6.290;2023-09-07T11:16:58;34.80;;;32.70;;
25231;SDS011;13176;51.140;6.290;2023-09-07T11:19:27;42.60;;;40.08;;
25231;SDS011;13176;51.140;6.290;2023-09-07T11:21:53;43.08;;;40.42;;
25231;SDS011;13176;51.140;6.290;2023-09-07T11:24:20;43.40;;;40.63;;
25231;SDS011;13176;51.140;6.290;2023-09-07T11:26:47;46.63;;;43.53;;
25231;SDS011;13176;51.140;6.290;2023-09-07T11:29:14;44.70;;;41.33;;
25231;SDS011;13176;51.140;6.290;2023-09-07T11:31:42;53.78;;;50.65;;
25231;SDS011;13176;51.140;6.290;2023-09-07T11:34:14;61.10;;;57.65;;
25231;SDS011;13176;51.140;6.290;2023-09-07T11:36:42;60.58;;;57.00;;
25231;SDS011;13176;51.140;6.290;2023-09-07T11:39:09;54.38;;;51.05;;
25231;SDS011;13176;51.140;6.290;2023-09-07T11:41:43;56.25;;;53.15;;
25231;SDS011;13176;51.140;6.290;2023-09-07T11:44:10;57.45;;;53.92;;
25231;SDS011;13176;51.140;6.290;2023-09-07T11:46:38;53.28;;;50.35;;
25231;SDS011;13176;51.140;6.290;2023-09-07T11:49:07;56.80;;;53.45;;
25231;SDS011;13176;51.140;6.290;2023-09-07T11:51:37;49.80;;;46.47;;
25231;SDS011;13176;51.140;6.290;2023-09-07T11:54:04;53.65;;;50.72;;
25231;SDS011;13176;51.140;6.290;2023-09-07T11:56:31;59.30;;;55.90;;
25231;SDS011;13176;51.140;6.290;2023-09-07T11:58:57;54.35;;;51.15;;
25231;SDS011;13176;51.140;6.290;2023-09-07T12:01:24;55.08;;;51.75;;
25231;SDS011;13176;51.140;6.290;2023-09-07T12:03:52;78.00;;;73.65;;
25231;SDS011;13176;51.140;6.290;2023-09-07T12:06:19;56.22;;;53.05;;
25231;SDS011;13176;51.140;6.290;2023-09-07T12:09:04;55.13;;;51.90;;
25231;SDS011;13176;51.140;6.290;2023-09-07T12:11:43;53.20;;;50.15;;
25231;SDS011;13176;51.140;6.290;2023-09-07T12:14:09;53.60;;;49.67;;
25231;SDS011;13176;51.140;6.290;2023-09-07T12:16:36;54.42;;;51.30;;
25231;SDS011;13176;51.140;6.290;2023-09-07T12:19:03;48.60;;;45.78;;
25231;SDS011;13176;51.140;6.290;2023-09-07T12:21:30;56.67;;;53.15;;
25231;SDS011;13176;51.140;6.290;2023-09-07T12:23:56;50.63;;;47.55;;
25231;SDS011;13176;51.140;6.290;2023-09-07T12:26:23;43.90;;;40.75;;
25231;SDS011;13176;51.140;6.290;2023-09-07T12:28:49;31.35;;;29.40;;
25231;SDS011;13176;51.140;6.290;2023-09-07T12:31:15;58.55;;;55.10;;
25231;SDS011;13176;51.140;6.290;2023-09-07T12:33:43;29.10;;;27.10;;
25231;SDS011;13176;51.140;6.290;2023-09-07T12:36:09;37.40;;;35.25;;
25231;SDS011;13176;51.140;6.290;2023-09-07T12:38:37;41.80;;;39.10;;
25231;SDS011;13176;51.140;6.290;2023-09-07T12:41:04;30.75;;;28.65;;
25231;SDS011;13176;51.140;6.290;2023-09-07T12:43:31;28.50;;;26.58;;
25231;SDS011;13176;51.140;6.290;2023-09-07T12:46:00;37.00;;;34.50;;
25231;SDS011;13176;51.140;6.290;2023-09-07T12:48:27;34.80;;;32.47;;
25231;SDS011;13176;51.140;6.290;2023-09-07T12:50:56;29.15;;;27.15;;
25231;SDS011;13176;51.140;6.290;2023-09-07T12:53:28;31.02;;;29.27;;
25231;SDS011;13176;51.140;6.290;2023-09-07T12:55:55;31.27;;;29.27;;
25231;SDS011;13176;51.140;6.290;2023-09-07T12:58:22;35.65;;;33.55;;
25231;SDS011;13176;51.140;6.290;2023-09-07T13:00:48;33.42;;;31.60;;
25231;SDS011;13176;51.140;6.290;2023-09-07T13:03:17;38.20;;;35.28;;
25231;SDS011;13176;51.140;6.290;2023-09-07T13:05:45;36.45;;;34.13;;
25231;SDS011;13176;51.140;6.290;2023-09-07T13:08:20;42.33;;;39.85;;
25231;SDS011;13176;51.140;6.290;2023-09-07T13:10:46;25.52;;;24.02;;
25231;SDS011;13176;51.140;6.290;2023-09-07T13:13:15;28.48;;;26.52;;
25231;SDS011;13176;51.140;6.290;2023-09-07T13:15:43;31.75;;;28.65;;
25231;SDS011;13176;51.140;6.290;2023-09-07T13:18:10;31.88;;;29.80;;
25231;SDS011;13176;51.140;6.290;2023-09-07T13:20:39;32.08;;;30.00;;
25231;SDS011;13176;51.140;6.290;2023-09-07T13:23:11;35.88;;;33.78;;
25231;SDS011;13176;51.140;6.290;2023-09-07T13:25:38;39.08;;;36.67;;
25231;SDS011;13176;51.140;6.290;2023-09-07T13:28:04;39.25;;;36.85;;
25231;SDS011;13176;51.140;6.290;2023-09-07T13:30:31;38.50;;;36.20;;
25231;SDS011;13176;51.140;6.290;2023-09-07T13:33:00;34.67;;;32.58;;
25231;SDS011;13176;51.140;6.290;2023-09-07T13:35:30;37.08;;;35.00;;
25231;SDS011;13176;51.140;6.290;2023-09-07T13:37:56;47.42;;;44.17;;
25231;SDS011;13176;51.140;6.290;2023-09-07T13:40:28;34.60;;;32.17;;
25231;SDS011;13176;51.140;6.290;2023-09-07T13:43:09;32.50;;;30.50;;
25231;SDS011;13176;51.140;6.290;2023-09-07T13:45:36;18.88;;;17.58;;
25231;SDS011;13176;51.140;6.290;2023-09-07T13:48:04;18.25;;;16.70;;
25231;SDS011;13176;51.140;6.290;2023-09-07T13:50:31;16.70;;;15.48;;
25231;SDS011;13176;51.140;6.290;2023-09-07T13:53:01;19.73;;;18.33;;
25231;SDS011;13176;51.140;6.290;2023-09-07T13:55:28;21.85;;;20.55;;
25231;SDS011;13176;51.140;6.290;2023-09-07T13:57:55;23.15;;;21.85;;
25231;SDS011;13176;51.140;6.290;2023-09-07T14:00:21;26.45;;;24.92;;